Terminal Aerodrome Forecast
Issued by NWS North Platte, NE

Home | Current Version | Previous Version | Graphics & Text | Print | Product List | Glossary On
Versions: 1 2 3 4 5 6 7 8 9 10 11 12 13 14 15 16
000
FTUS43 KLBF 202331
TAFVTN
TAF
KVTN 202331Z 2100/2124 03007KT P6SM BKN025
     FM210300 01006KT P6SM OVC020
     FM210700 01007KT P6SM VCSH OVC008
     FM211000 01009KT 5SM -SN OVC006
     FM211200 01010KT 3SM -SN OVC004
     FM211400 01010KT 2SM -SN OVC003
     FM211800 02012KT 1/2SM SN VV002=

USA.gov is the U.S. government's official web portal to all federal, state and local government web resources and services.